Terminal Aerodrome Forecast
Issued by NWS Northern Indiana

Home | Current Version | Previous Version | Text Only | Print | Product List | Glossary On
Versions: 1 2 3 4 5 6 7 8 9 10 11 12 13 14 15 16 17 18
000
FTUS43 KIWX 210538 AAB
TAFFWA
TAF AMD
KFWA 210538Z 2106/2206 16006KT 6SM BR SCT020 OVC050
     FM211400 18010KT P6SM SCT020 BKN040
      TEMPO 2114/2118 BKN020
     FM220000 17005KT P6SM SCT020 BKN100=

USA.gov is the U.S. government's official web portal to all federal, state and local government web resources and services.